Time;durP1;ratioP1;P1;durP2;ratioP2;P2;SDS_P1;SDS_P2;PMS_P1;PMS_P2;Temp;Humidity;BMP_temperature;BMP_pressure;BME280_temperature;BME280_humidity;BME280_pressure;Samples;Min_cycle;Max_cycle;Signal;HPM_P1;HPM_P2
2021/07/22 00:01:59;;;;;;;10.10;8.97;;;21.50;95.60;;;;;;5074226;28;20429;-55
2021/07/22 00:04:26;;;;;;;12.60;9.00;;;21.50;95.40;;;;;;5074577;28;20436;-56
2021/07/22 00:06:52;;;;;;;14.00;10.60;;;21.50;95.50;;;;;;5074425;28;20475;-55
2021/07/22 00:09:20;;;;;;;13.20;10.17;;;21.50;95.90;;;;;;5074273;28;20440;-54
2021/07/22 00:11:47;;;;;;;14.27;10.90;;;21.50;95.70;;;;;;5074485;28;20437;-54
2021/07/22 00:14:15;;;;;;;12.27;10.47;;;21.50;95.70;;;;;;5074532;28;20443;-54
2021/07/22 00:16:41;;;;;;;12.23;10.60;;;21.50;95.80;;;;;;5074389;28;20459;-54
2021/07/22 00:19:08;;;;;;;12.67;10.23;;;21.40;95.80;;;;;;5074028;28;20480;-54
2021/07/22 00:21:34;;;;;;;11.70;9.53;;;21.40;96.00;;;;;;5074249;28;20921;-54
2021/07/22 00:24:01;;;;;;;15.00;9.20;;;21.40;96.10;;;;;;5074513;28;20942;-54
2021/07/22 00:26:29;;;;;;;10.77;9.00;;;21.40;96.10;;;;;;5076647;28;20460;-55
2021/07/22 00:28:56;;;;;;;14.03;9.47;;;21.40;96.20;;;;;;5074413;28;20441;-55
2021/07/22 00:31:23;;;;;;;13.33;9.73;;;21.40;96.20;;;;;;5074364;28;20540;-54
2021/07/22 00:33:50;;;;;;;11.23;9.73;;;21.40;96.30;;;;;;5074115;28;20799;-55
2021/07/22 00:36:16;;;;;;;11.00;9.07;;;21.40;96.40;;;;;;5074207;28;20442;-54
2021/07/22 00:38:43;;;;;;;9.77;8.73;;;21.40;96.40;;;;;;5055559;28;20505;-55
2021/07/22 00:41:11;;;;;;;14.90;10.50;;;21.40;96.40;;;;;;5056165;28;20450;-55
2021/07/22 00:43:40;;;;;;;13.60;10.93;;;21.30;96.40;;;;;;5055904;28;20551;-55
2021/07/22 00:46:07;;;;;;;12.43;10.20;;;21.30;96.50;;;;;;5055928;28;20465;-55
2021/07/22 00:48:33;;;;;;;11.63;9.40;;;21.30;96.50;;;;;;5055519;28;20827;-54
2021/07/22 00:51:00;;;;;;;13.17;9.80;;;21.40;96.60;;;;;;5055864;28;20544;-54
2021/07/22 00:53:27;;;;;;;13.83;10.03;;;21.30;96.60;;;;;;5073842;28;20438;-54
2021/07/22 00:55:57;;;;;;;14.13;9.97;;;21.30;96.60;;;;;;5055746;28;20475;-54
2021/07/22 00:58:24;;;;;;;10.87;9.67;;;21.30;96.70;;;;;;5055171;28;20490;-54
2021/07/22 01:00:52;;;;;;;12.57;9.00;;;21.30;96.70;;;;;;5055674;28;20710;-55
2021/07/22 01:03:19;;;;;;;11.03;9.07;;;21.30;96.80;;;;;;5055418;28;20547;-55
2021/07/22 01:05:47;;;;;;;12.23;10.43;;;21.30;96.80;;;;;;5054652;28;20474;-53
2021/07/22 01:08:14;;;;;;;11.60;8.97;;;21.20;96.80;;;;;;5055109;28;20447;-54
2021/07/22 01:10:43;;;;;;;13.10;10.13;;;21.20;96.80;;;;;;5055333;28;20447;-54
2021/07/22 01:13:10;;;;;;;9.57;8.57;;;21.20;96.80;;;;;;5055453;28;20457;-54
2021/07/22 01:15:37;;;;;;;11.20;9.03;;;21.20;96.90;;;;;;5055183;28;20491;-54
2021/07/22 01:18:06;;;;;;;10.47;8.90;;;21.10;96.90;;;;;;5054696;28;20527;-55
2021/07/22 01:20:34;;;;;;;13.03;10.10;;;21.10;97.00;;;;;;5073148;28;20523;-55
2021/07/22 01:23:01;;;;;;;12.33;9.70;;;21.00;97.00;;;;;;5055435;28;20455;-55
2021/07/22 01:25:47;;;;;;;10.70;9.33;;;21.10;97.20;;;;;;5055192;28;20468;-55
2021/07/22 01:28:14;;;;;;;10.67;9.17;;;21.00;97.20;;;;;;5055021;28;20834;-55
2021/07/22 01:30:41;;;;;;;12.03;9.63;;;21.00;97.30;;;;;;5073136;28;20476;-54
2021/07/22 01:33:07;;;;;;;11.37;9.03;;;21.00;97.40;;;;;;5072815;28;20451;-54
2021/07/22 01:35:37;;;;;;;10.07;8.97;;;21.00;97.50;;;;;;5072753;28;20462;-55
2021/07/22 01:38:05;;;;;;;13.23;9.10;;;21.00;97.70;;;;;;5054609;28;20491;-53
2021/07/22 01:40:32;;;;;;;11.10;8.70;;;21.10;97.80;;;;;;5057949;28;20452;-54
2021/07/22 01:42:58;;;;;;;10.93;9.30;;;21.10;98.00;;;;;;5055229;28;20456;-55
2021/07/22 01:45:33;;;;;;;12.43;9.83;;;20.90;97.90;;;;;;5055047;28;20475;-55
2021/07/22 01:48:00;;;;;;;14.20;9.43;;;20.90;98.00;;;;;;5054673;28;20452;-55
2021/07/22 01:50:27;;;;;;;11.33;9.30;;;20.90;98.20;;;;;;5054510;28;20530;-55
2021/07/22 01:52:56;;;;;;;12.40;10.20;;;20.90;98.20;;;;;;5054693;28;20811;-55
2021/07/22 01:55:23;;;;;;;14.47;11.80;;;20.80;98.30;;;;;;5054600;28;20563;-55
2021/07/22 01:58:00;;;;;;;10.93;9.33;;;20.80;98.40;;;;;;5072434;28;20471;-56
2021/07/22 02:00:28;;;;;;;10.27;9.00;;;20.80;98.50;;;;;;5054393;28;20448;-53
2021/07/22 02:03:00;;;;;;;10.97;9.80;;;20.80;98.70;;;;;;5054451;28;20451;-53
2021/07/22 02:05:38;;;;;;;13.90;10.67;;;21.00;98.90;;;;;;5054201;28;20478;-55
2021/07/22 02:08:07;;;;;;;11.13;8.80;;;20.70;98.70;;;;;;5071956;28;20837;-53
2021/07/22 02:10:34;;;;;;;13.27;9.43;;;20.70;98.90;;;;;;5054410;28;20490;-54
2021/07/22 02:13:01;;;;;;;11.60;9.80;;;20.70;98.90;;;;;;5054362;28;20459;-54
2021/07/22 02:15:39;;;;;;;12.93;9.07;;;20.70;99.10;;;;;;5054300;28;20521;-54
2021/07/22 02:18:05;;;;;;;11.40;9.10;;;20.60;99.20;;;;;;5053026;28;20480;-54
2021/07/22 02:20:32;;;;;;;11.40;9.80;;;20.60;99.30;;;;;;5054206;28;20463;-54
2021/07/22 02:23:00;;;;;;;13.77;10.07;;;20.60;99.30;;;;;;5054158;28;20542;-55
2021/07/22 02:25:50;;;;;;;12.07;9.60;;;20.80;99.50;;;;;;5071805;28;20467;-55
2021/07/22 02:28:17;;;;;;;11.70;9.03;;;20.70;99.60;;;;;;5054016;28;20977;-55
2021/07/22 02:30:44;;;;;;;10.77;9.60;;;20.60;99.60;;;;;;5071212;28;20467;-57
2021/07/22 02:33:11;;;;;;;10.43;8.70;;;20.50;99.60;;;;;;5070952;28;20439;-55
2021/07/22 02:35:39;;;;;;;10.60;9.50;;;20.60;99.70;;;;;;5071992;28;20501;-56
2021/07/22 02:38:26;;;;;;;11.53;9.47;;;20.50;99.80;;;;;;5030481;28;20435;-56
2021/07/22 02:40:53;;;;;;;12.13;9.70;;;20.50;99.90;;;;;;5053979;28;20449;-55
2021/07/22 02:43:22;;;;;;;10.00;8.80;;;20.50;99.90;;;;;;5053816;28;20450;-55
2021/07/22 02:45:49;;;;;;;11.63;9.70;;;20.50;99.90;;;;;;5053634;28;20474;-56
2021/07/22 02:48:18;;;;;;;12.80;11.50;;;20.40;99.90;;;;;;5054961;28;20459;-55
2021/07/22 02:50:46;;;;;;;10.03;8.30;;;20.50;99.90;;;;;;5055321;28;20873;-56
2021/07/22 02:53:13;;;;;;;11.50;9.23;;;20.50;99.90;;;;;;5053812;28;20473;-55
2021/07/22 02:55:58;;;;;;;11.13;9.60;;;20.60;99.90;;;;;;5053777;28;20562;-56
2021/07/22 02:58:26;;;;;;;10.50;9.00;;;20.50;99.90;;;;;;5071385;28;20951;-55
2021/07/22 03:00:54;;;;;;;10.90;9.77;;;20.50;99.90;;;;;;5053977;28;20947;-56
2021/07/22 03:03:21;;;;;;;10.67;8.73;;;20.40;99.90;;;;;;5053912;28;20462;-55
2021/07/22 03:05:48;;;;;;;11.67;9.57;;;20.40;99.90;;;;;;5053546;28;20514;-55
2021/07/22 03:08:17;;;;;;;11.90;9.47;;;20.40;99.90;;;;;;5053402;28;20500;-54
2021/07/22 03:10:45;;;;;;;10.60;8.70;;;20.40;99.90;;;;;;5053470;28;20505;-55
2021/07/22 03:13:13;;;;;;;12.47;10.43;;;20.40;99.90;;;;;;5053511;28;20447;-54
2021/07/22 03:15:41;;;;;;;12.33;9.90;;;20.40;99.90;;;;;;5071301;28;20447;-54
2021/07/22 03:18:21;;;;;;;12.33;9.70;;;20.30;99.90;;;;;;5052996;28;20460;-55
2021/07/22 03:20:49;;;;;;;10.13;8.83;;;20.30;99.90;;;;;;5053418;28;20505;-54
2021/07/22 03:23:16;;;;;;;15.07;10.60;;;20.30;99.90;;;;;;5071429;28;20451;-54
2021/07/22 03:25:50;;;;;;;13.37;10.40;;;20.30;99.90;;;;;;5053215;28;20471;-54
2021/07/22 03:28:27;;;;;;;11.67;9.77;;;20.30;99.90;;;;;;5052987;28;20538;-54
2021/07/22 03:31:22;;;;;;;10.77;9.70;;;20.30;99.90;;;;;;5057114;28;20451;-54
2021/07/22 03:33:56;;;;;;;12.13;9.73;;;20.20;99.90;;;;;;5057366;28;20451;-54
2021/07/22 03:36:25;;;;;;;10.40;9.30;;;20.30;99.90;;;;;;5056847;28;20982;-54
2021/07/22 03:38:59;;;;;;;10.20;9.10;;;20.20;99.90;;;;;;5056739;28;21010;-55
2021/07/22 03:41:35;;;;;;;11.83;9.70;;;20.40;99.90;;;;;;5075221;28;20520;-56
2021/07/22 03:44:26;;;;;;;11.77;9.03;;;20.20;99.90;;;;;;5066513;28;20541;-54
2021/07/22 03:46:53;;;;;;;11.90;10.47;;;20.20;99.90;;;;;;5056927;28;20465;-54
2021/07/22 03:49:25;;;;;;;14.10;10.23;;;20.20;99.90;;;;;;5074639;28;20979;-54
2021/07/22 03:51:55;;;;;;;10.60;9.60;;;20.20;99.90;;;;;;5056865;28;20457;-54
2021/07/22 03:54:25;;;;;;;14.00;10.17;;;20.20;99.90;;;;;;5074904;28;20919;-54
2021/07/22 03:56:52;;;;;;;11.30;9.20;;;20.30;99.90;;;;;;5058149;28;20470;-56
2021/07/22 03:59:23;;;;;;;10.73;8.90;;;20.30;99.90;;;;;;5077070;28;20986;-55
2021/07/22 04:01:56;;;;;;;12.40;9.70;;;20.30;99.90;;;;;;5056957;28;20462;-55
2021/07/22 04:04:26;;;;;;;13.50;9.20;;;20.50;99.90;;;;;;5056831;28;20552;-56
2021/07/22 04:06:54;;;;;;;14.37;10.73;;;20.30;99.90;;;;;;5056901;28;20528;-55
2021/07/22 04:09:28;;;;;;;13.00;9.87;;;20.30;99.90;;;;;;5056397;28;20504;-55
2021/07/22 04:12:12;;;;;;;13.33;10.33;;;20.30;99.90;;;;;;5074535;28;20449;-56
2021/07/22 04:14:46;;;;;;;12.90;9.70;;;20.40;99.90;;;;;;5074279;28;20468;-56
2021/07/22 04:17:30;;;;;;;12.93;9.60;;;20.40;99.90;;;;;;5056530;28;20557;-55
2021/07/22 04:20:13;;;;;;;14.87;11.00;;;20.40;99.90;;;;;;5055719;28;20484;-56
2021/07/22 04:22:53;;;;;;;13.70;11.40;;;20.40;99.90;;;;;;5074309;28;20447;-56
2021/07/22 04:25:56;;;;;;;11.67;10.30;;;20.40;99.90;;;;;;5050785;28;20470;-56
2021/07/22 04:28:31;;;;;;;15.90;10.70;;;20.40;99.90;;;;;;5055920;28;20777;-56
2021/07/22 04:30:58;;;;;;;14.03;10.80;;;20.50;99.90;;;;;;5056049;28;20451;-56
2021/07/22 04:33:38;;;;;;;13.10;11.70;;;20.50;99.90;;;;;;5074231;28;20484;-56
2021/07/22 04:36:13;;;;;;;15.93;11.77;;;20.50;99.90;;;;;;5055940;28;20980;-57
2021/07/22 04:38:40;;;;;;;13.90;11.47;;;20.50;99.90;;;;;;5073438;28;20574;-55
2021/07/22 04:41:43;;;;;;;14.37;11.27;;;20.50;99.90;;;;;;5055080;28;20450;-55
2021/07/22 04:44:34;;;;;;;17.73;12.77;;;20.60;99.90;;;;;;5055756;28;20443;-55
2021/07/22 04:47:11;;;;;;;13.23;11.80;;;20.60;99.90;;;;;;5055521;28;20555;-55
2021/07/22 04:50:12;;;;;;;14.57;12.20;;;20.60;99.90;;;;;;5028525;28;20447;-55
2021/07/22 04:52:55;;;;;;;14.60;13.10;;;20.60;99.90;;;;;;5055957;28;20533;-55
2021/07/22 04:55:32;;;;;;;14.93;11.03;;;20.60;99.90;;;;;;5073116;28;20454;-56
2021/07/22 04:58:01;;;;;;;19.13;11.53;;;20.60;99.90;;;;;;5055337;28;20472;-56
2021/07/22 05:00:29;;;;;;;16.50;11.10;;;20.70;99.90;;;;;;5055359;28;20864;-56
2021/07/22 05:02:59;;;;;;;13.10;10.33;;;20.70;99.90;;;;;;5055172;28;20508;-56
2021/07/22 05:05:29;;;;;;;13.33;11.00;;;20.80;99.90;;;;;;5077555;22;20500;-53
2021/07/22 05:08:14;;;;;;;12.70;10.90;;;21.00;99.90;;;;;;5031441;28;20915;-54
2021/07/22 05:10:48;;;;;;;14.17;10.50;;;20.90;99.90;;;;;;5031436;28;20432;-54
2021/07/22 05:13:22;;;;;;;12.20;10.70;;;21.00;99.90;;;;;;5013427;28;20453;-55
2021/07/22 05:16:07;;;;;;;11.73;10.53;;;21.00;99.90;;;;;;5013442;28;20502;-54
2021/07/22 05:18:56;;;;;;;12.93;11.63;;;21.00;99.90;;;;;;5012943;28;20468;-54
2021/07/22 05:21:41;;;;;;;11.77;9.43;;;21.10;99.90;;;;;;5013418;28;20447;-54
2021/07/22 05:24:17;;;;;;;13.20;10.60;;;21.10;99.90;;;;;;5013352;28;20889;-54
2021/07/22 05:26:51;;;;;;;13.87;12.20;;;21.30;99.90;;;;;;5013195;28;20946;-54
2021/07/22 05:29:26;;;;;;;12.63;10.73;;;21.40;99.90;;;;;;5012902;28;20454;-54
2021/07/22 05:32:22;;;;;;;15.20;11.97;;;21.40;99.90;;;;;;5031443;28;20590;-55
2021/07/22 05:34:57;;;;;;;15.00;10.90;;;21.20;99.90;;;;;;5030890;28;20438;-54
2021/07/22 05:37:53;;;;;;;10.83;9.73;;;21.40;99.90;;;;;;5013131;28;20882;-54
2021/07/22 05:40:19;;;;;;;11.77;8.97;;;21.60;99.80;;;;;;5013037;28;20482;-54
2021/07/22 05:42:46;;;;;;;12.70;10.13;;;21.40;99.20;;;;;;5030800;28;20488;-54
2021/07/22 05:45:12;;;;;;;12.33;10.30;;;21.30;98.90;;;;;;5030806;28;20460;-54
2021/07/22 05:47:39;;;;;;;11.57;10.40;;;21.30;98.50;;;;;;5030460;28;20430;-54
2021/07/22 05:50:06;;;;;;;12.40;9.93;;;21.30;98.50;;;;;;5030708;28;20443;-53
2021/07/22 05:52:33;;;;;;;13.03;10.37;;;21.40;98.50;;;;;;5030471;28;20477;-53
2021/07/22 05:55:01;;;;;;;13.80;10.93;;;21.50;98.50;;;;;;5030402;28;20442;-54
2021/07/22 05:57:27;;;;;;;10.30;9.20;;;21.60;98.40;;;;;;5030424;28;20930;-54
2021/07/22 05:59:54;;;;;;;12.90;10.57;;;21.70;97.90;;;;;;5029983;28;20478;-54
2021/07/22 06:02:20;;;;;;;11.03;10.00;;;21.70;97.50;;;;;;5030317;28;20435;-54
2021/07/22 06:04:48;;;;;;;11.33;10.17;;;21.90;97.40;;;;;;5030036;28;20439;-55
2021/07/22 06:07:14;;;;;;;11.73;9.60;;;22.00;97.20;;;;;;5012142;28;20491;-54
2021/07/22 06:09:41;;;;;;;14.60;10.83;;;22.20;97.20;;;;;;5029518;28;20442;-55
2021/07/22 06:12:09;;;;;;;11.37;9.47;;;22.30;96.40;;;;;;5030019;28;20532;-55
2021/07/22 06:14:36;;;;;;;12.10;10.20;;;22.40;96.80;;;;;;5030120;28;20962;-55
2021/07/22 06:17:03;;;;;;;11.17;9.50;;;22.50;96.30;;;;;;5030378;28;20460;-55
2021/07/22 06:19:31;;;;;;;13.63;10.20;;;22.60;95.90;;;;;;5029738;28;20448;-55
2021/07/22 06:21:58;;;;;;;12.93;8.73;;;22.70;95.70;;;;;;5030165;28;20903;-54
2021/07/22 06:24:24;;;;;;;11.43;9.17;;;22.80;95.40;;;;;;5030254;28;20433;-54
2021/07/22 06:26:51;;;;;;;11.80;9.70;;;22.90;95.20;;;;;;5029707;28;20450;-55
2021/07/22 06:29:19;;;;;;;12.40;9.47;;;22.90;95.00;;;;;;5029548;28;20437;-54
2021/07/22 06:31:46;;;;;;;11.10;9.17;;;22.90;94.80;;;;;;5030147;28;20465;-55
2021/07/22 06:34:13;;;;;;;13.70;10.10;;;23.00;94.70;;;;;;5030016;28;20466;-54
2021/07/22 06:36:39;;;;;;;11.23;9.60;;;23.10;94.70;;;;;;5029897;28;20453;-54
2021/07/22 06:39:06;;;;;;;10.60;9.50;;;23.00;94.50;;;;;;5011625;28;20461;-55
2021/07/22 06:41:32;;;;;;;10.17;9.00;;;23.10;94.50;;;;;;5029430;28;20567;-55
2021/07/22 06:43:59;;;;;;;12.07;9.90;;;23.20;94.60;;;;;;5029762;28;20434;-55
2021/07/22 06:46:27;;;;;;;15.43;11.03;;;23.20;94.50;;;;;;5029666;28;20465;-54
2021/07/22 06:48:57;;;;;;;13.43;9.77;;;23.40;94.50;;;;;;5011140;28;20562;-55
2021/07/22 06:51:24;;;;;;;9.67;8.60;;;23.40;94.40;;;;;;5029485;28;20527;-54
2021/07/22 06:53:52;;;;;;;13.30;9.17;;;23.50;94.10;;;;;;5011577;28;20618;-54
2021/07/22 06:56:18;;;;;;;14.77;10.90;;;23.60;93.90;;;;;;5029250;28;20526;-54
2021/07/22 06:58:46;;;;;;;13.73;9.43;;;23.70;93.70;;;;;;5029120;28;20978;-53
2021/07/22 07:01:13;;;;;;;10.87;9.87;;;23.70;93.60;;;;;;5029203;28;20555;-54
2021/07/22 07:03:40;;;;;;;11.07;10.00;;;23.80;93.50;;;;;;5031064;28;20431;-55
2021/07/22 07:06:07;;;;;;;10.77;9.60;;;23.90;93.20;;;;;;5035682;28;20482;-55
2021/07/22 07:08:35;;;;;;;12.70;10.13;;;23.90;93.00;;;;;;5035622;28;20533;-55
2021/07/22 07:11:03;;;;;;;14.80;11.47;;;24.00;93.00;;;;;;5036072;28;20501;-56
2021/07/22 07:13:29;;;;;;;11.60;10.00;;;24.00;92.90;;;;;;5036330;28;20438;-55
2021/07/22 07:15:56;;;;;;;12.10;10.57;;;24.00;92.80;;;;;;5036200;28;20539;-55
2021/07/22 07:18:22;;;;;;;10.57;9.30;;;23.90;92.80;;;;;;5036084;28;20945;-55
2021/07/22 07:20:50;;;;;;;13.33;10.07;;;23.90;92.90;;;;;;5036076;28;20484;-55
2021/07/22 07:23:17;;;;;;;15.23;10.03;;;23.90;92.90;;;;;;5035817;28;20457;-55
2021/07/22 07:25:43;;;;;;;10.50;9.40;;;23.90;93.00;;;;;;5035653;28;20465;-55
2021/07/22 07:28:10;;;;;;;16.30;10.37;;;23.90;92.90;;;;;;5035639;28;20513;-55
2021/07/22 07:30:36;;;;;;;13.10;10.13;;;23.80;92.80;;;;;;5036028;28;20712;-55
2021/07/22 07:33:04;;;;;;;16.00;9.97;;;23.90;92.70;;;;;;5035659;28;20434;-55
2021/07/22 07:35:31;;;;;;;11.70;9.30;;;24.00;92.70;;;;;;5035860;28;20502;-55
2021/07/22 07:37:59;;;;;;;13.00;8.97;;;24.10;92.60;;;;;;5036152;28;20438;-55
2021/07/22 07:40:26;;;;;;;24.30;10.30;;;24.10;92.70;;;;;;5035394;28;20811;-56
2021/07/22 07:42:52;;;;;;;11.83;9.83;;;24.10;92.70;;;;;;5035832;28;20431;-55
2021/07/22 07:45:19;;;;;;;11.57;9.90;;;24.00;92.70;;;;;;5035662;28;20462;-55
2021/07/22 07:47:46;;;;;;;13.23;9.97;;;24.00;92.50;;;;;;5035490;28;20589;-54
2021/07/22 07:50:13;;;;;;;10.57;8.90;;;24.00;92.30;;;;;;5035518;28;20521;-55
2021/07/22 07:52:40;;;;;;;11.43;8.90;;;23.90;92.30;;;;;;5035710;28;20447;-55
2021/07/22 07:55:09;;;;;;;13.60;9.50;;;23.90;92.30;;;;;;5035400;28;20860;-54
2021/07/22 07:57:35;;;;;;;13.13;9.50;;;24.10;92.50;;;;;;5035241;28;20439;-55
2021/07/22 08:00:03;;;;;;;12.37;9.40;;;24.20;92.50;;;;;;5035392;28;20445;-55
2021/07/22 08:02:39;;;;;;;11.30;9.43;;;24.20;92.40;;;;;;5035311;28;20433;-55
2021/07/22 08:05:06;;;;;;;9.97;8.50;;;24.00;92.10;;;;;;5035360;28;20438;-55
2021/07/22 08:07:34;;;;;;;11.23;9.00;;;24.20;92.20;;;;;;5035467;28;20861;-55
2021/07/22 08:10:02;;;;;;;11.00;9.23;;;24.30;92.20;;;;;;5035359;28;20529;-55
2021/07/22 08:12:30;;;;;;;11.60;8.57;;;24.30;92.10;;;;;;5035594;28;20447;-55
2021/07/22 08:14:56;;;;;;;13.40;8.77;;;24.40;91.70;;;;;;5034695;28;20752;-54
2021/07/22 08:17:26;;;;;;;10.50;9.50;;;24.40;91.50;;;;;;5032262;28;20445;-54
2021/07/22 08:19:57;;;;;;;11.30;8.63;;;24.50;91.50;;;;;;5032423;28;20481;-54
2021/07/22 08:22:25;;;;;;;11.77;10.20;;;24.50;91.30;;;;;;5032163;28;20464;-55
2021/07/22 08:24:52;;;;;;;13.00;9.40;;;24.60;91.10;;;;;;5032222;28;20936;-54
2021/07/22 08:27:25;;;;;;;11.60;9.37;;;24.70;91.30;;;;;;5032151;28;20889;-54
2021/07/22 08:29:53;;;;;;;16.10;9.70;;;24.70;91.10;;;;;;5031816;28;20428;-54
2021/07/22 08:32:21;;;;;;;9.23;8.23;;;24.70;91.10;;;;;;5031887;28;20451;-54
2021/07/22 08:34:47;;;;;;;9.53;8.53;;;24.70;90.80;;;;;;5032134;28;20527;-55
2021/07/22 08:37:14;;;;;;;11.47;10.20;;;24.80;90.50;;;;;;5031914;28;20458;-56
2021/07/22 08:39:42;;;;;;;10.13;9.03;;;24.80;90.50;;;;;;5013979;28;20454;-55
2021/07/22 08:42:11;;;;;;;10.80;7.93;;;24.80;90.40;;;;;;5013960;28;20482;-55
2021/07/22 08:44:39;;;;;;;11.10;8.70;;;24.90;90.20;;;;;;5031734;28;21067;-56
2021/07/22 08:47:09;;;;;;;8.93;7.50;;;25.10;89.70;;;;;;5031612;28;20924;-55
2021/07/22 08:49:38;;;;;;;12.30;8.13;;;25.20;89.20;;;;;;5031366;28;20454;-55
2021/07/22 08:52:08;;;;;;;10.07;8.27;;;25.30;89.00;;;;;;5031925;28;20432;-55
2021/07/22 08:54:35;;;;;;;10.10;8.13;;;25.30;89.20;;;;;;5013864;28;20483;-55
2021/07/22 08:57:03;;;;;;;11.03;8.20;;;25.30;88.10;;;;;;5031707;28;20553;-55
2021/07/22 08:59:31;;;;;;;9.20;8.17;;;25.30;87.00;;;;;;5031413;28;20436;-55
2021/07/22 09:02:00;;;;;;;9.83;8.97;;;25.20;87.00;;;;;;5031646;28;20578;-55
2021/07/22 09:04:28;;;;;;;10.00;8.63;;;25.30;86.80;;;;;;5031674;28;20459;-55
2021/07/22 09:06:55;;;;;;;11.77;8.27;;;25.30;86.90;;;;;;5031473;28;20463;-55
2021/07/22 09:09:21;;;;;;;9.30;8.33;;;25.40;86.60;;;;;;5031066;28;20840;-55
2021/07/22 09:11:56;;;;;;;9.60;8.33;;;25.50;86.20;;;;;;5031494;28;20432;-55
2021/07/22 09:14:23;;;;;;;9.47;7.00;;;25.50;85.10;;;;;;5031304;28;20618;-55
2021/07/22 09:16:50;;;;;;;7.60;6.90;;;25.50;84.90;;;;;;5031246;28;20552;-55
2021/07/22 09:19:35;;;;;;;10.50;7.70;;;25.60;84.30;;;;;;5031346;28;20527;-56
2021/07/22 09:22:02;;;;;;;8.63;6.80;;;25.70;84.20;;;;;;5031158;28;20483;-55
2021/07/22 09:24:29;;;;;;;13.43;8.37;;;25.70;84.50;;;;;;5030916;28;20518;-55
2021/07/22 09:26:56;;;;;;;17.07;8.37;;;25.70;84.20;;;;;;5030463;28;20474;-56
2021/07/22 09:29:23;;;;;;;17.80;9.10;;;25.70;84.20;;;;;;5030460;28;20440;-55
2021/07/22 09:31:50;;;;;;;9.77;7.77;;;25.70;84.30;;;;;;5030658;28;20434;-55
2021/07/22 09:34:18;;;;;;;13.93;7.67;;;25.60;84.20;;;;;;5030688;28;20510;-55
2021/07/22 09:36:46;;;;;;;10.10;8.73;;;25.60;84.50;;;;;;5030456;28;21003;-55
2021/07/22 09:39:24;;;;;;;10.23;8.93;;;25.60;84.30;;;;;;5030521;28;20928;-55
2021/07/22 09:42:02;;;;;;;26.97;10.03;;;25.60;84.00;;;;;;5030607;28;20869;-55
2021/07/22 09:44:33;;;;;;;16.73;8.40;;;25.60;84.30;;;;;;5030773;28;20431;-55
2021/07/22 09:47:01;;;;;;;12.87;6.93;;;25.50;84.40;;;;;;5030501;28;20975;-55
2021/07/22 09:49:36;;;;;;;7.67;6.90;;;25.60;84.20;;;;;;5030249;28;20442;-56
2021/07/22 09:52:10;;;;;;;9.40;8.20;;;25.60;83.90;;;;;;5030616;28;20450;-55
2021/07/22 09:54:38;;;;;;;10.73;8.10;;;25.60;83.40;;;;;;5030368;28;20446;-55
2021/07/22 09:57:16;;;;;;;7.83;6.83;;;25.60;83.50;;;;;;5030177;28;20462;-55
2021/07/22 09:59:44;;;;;;;12.13;8.70;;;25.70;82.70;;;;;;5030225;28;20451;-56
2021/07/22 10:02:18;;;;;;;9.83;7.27;;;25.70;82.70;;;;;;5030292;28;20490;-54
2021/07/22 10:04:50;;;;;;;8.27;7.43;;;25.80;82.80;;;;;;5030373;28;20439;-54
2021/07/22 10:07:21;;;;;;;17.33;9.73;;;25.70;82.90;;;;;;5030276;28;20478;-55
2021/07/22 10:09:50;;;;;;;10.63;8.13;;;25.70;83.00;;;;;;5029825;28;20523;-54
2021/07/22 10:12:19;;;;;;;9.47;8.03;;;25.70;82.90;;;;;;5029691;28;20445;-55
2021/07/22 10:14:48;;;;;;;9.27;8.30;;;25.60;83.50;;;;;;5030234;28;20436;-55
2021/07/22 10:17:15;;;;;;;9.30;8.33;;;25.50;84.30;;;;;;5029824;28;20455;-54
2021/07/22 10:19:41;;;;;;;9.20;7.67;;;25.40;84.80;;;;;;5029616;28;20435;-54
2021/07/22 10:22:08;;;;;;;9.57;7.20;;;25.20;85.00;;;;;;5029974;28;20822;-55
2021/07/22 10:24:37;;;;;;;11.33;7.73;;;25.20;84.50;;;;;;5030015;28;20947;-55
2021/07/22 10:27:07;;;;;;;10.40;7.70;;;25.10;84.50;;;;;;5029774;28;20944;-55
2021/07/22 10:29:34;;;;;;;12.13;8.50;;;25.00;84.90;;;;;;5029619;28;20432;-54
2021/07/22 10:32:02;;;;;;;11.30;8.70;;;25.00;86.20;;;;;;5030060;28;21004;-54
2021/07/22 10:34:31;;;;;;;11.07;8.27;;;24.90;86.50;;;;;;5029745;28;20435;-55
2021/07/22 10:36:58;;;;;;;9.20;8.20;;;24.90;86.70;;;;;;5029416;28;20513;-55
2021/07/22 10:39:58;;;;;;;8.87;7.77;;;24.90;87.00;;;;;;5028745;28;20670;-55
2021/07/22 10:42:41;;;;;;;22.80;9.30;;;24.80;87.30;;;;;;5011552;28;20519;-54
2021/07/22 10:45:28;;;;;;;10.03;8.43;;;24.80;87.20;;;;;;5029708;28;20447;-55
2021/07/22 10:48:06;;;;;;;12.03;7.97;;;24.80;87.60;;;;;;5030351;28;20427;-55
2021/07/22 10:51:00;;;;;;;10.10;8.00;;;24.80;87.50;;;;;;5030079;28;20547;-55
2021/07/22 10:53:48;;;;;;;13.90;11.83;;;24.80;87.10;;;;;;5020256;28;20982;-55
2021/07/22 10:56:16;;;;;;;9.33;8.37;;;24.80;87.20;;;;;;5029590;28;20486;-54
2021/07/22 10:58:52;;;;;;;16.17;10.53;;;24.90;87.20;;;;;;5029638;28;20450;-55
2021/07/22 11:01:56;;;;;;;10.20;8.30;;;25.00;87.10;;;;;;5029179;28;20918;-55
2021/07/22 11:04:43;;;;;;;8.60;7.60;;;25.20;86.00;;;;;;5028976;28;20736;-55
2021/07/22 11:07:23;;;;;;;10.63;7.77;;;25.30;85.70;;;;;;5029621;28;20466;-55
2021/07/22 11:09:51;;;;;;;11.50;8.87;;;25.40;85.60;;;;;;5029190;28;20437;-55
2021/07/22 11:12:44;;;;;;;10.83;8.97;;;25.50;85.10;;;;;;5029663;28;20447;-55
2021/07/22 11:15:15;;;;;;;43.17;11.43;;;25.60;83.50;;;;;;5010531;28;20456;-55
2021/07/22 11:17:43;;;;;;;12.77;8.50;;;25.60;83.60;;;;;;5029402;28;20427;-55
2021/07/22 11:20:43;;;;;;;11.80;8.67;;;25.80;83.30;;;;;;5029106;28;20924;-55
2021/07/22 11:23:14;;;;;;;72.23;17.00;;;25.70;81.80;;;;;;5029262;28;20478;-56
2021/07/22 11:25:48;;;;;;;14.43;7.80;;;25.80;82.20;;;;;;5029107;28;20948;-56
2021/07/22 11:28:22;;;;;;;12.87;8.57;;;26.00;81.90;;;;;;5028706;28;20512;-56
2021/07/22 11:31:05;;;;;;;11.30;8.60;;;26.20;81.90;;;;;;5029220;28;20519;-53
2021/07/22 11:33:36;;;;;;;13.80;8.20;;;26.30;81.20;;;;;;5029267;28;20439;-56
2021/07/22 11:36:04;;;;;;;10.87;8.40;;;26.30;81.10;;;;;;5028767;28;20932;-54
2021/07/22 11:38:32;;;;;;;10.23;8.50;;;26.40;81.70;;;;;;5028740;28;20435;-54
2021/07/22 11:40:58;;;;;;;9.10;7.93;;;26.30;81.10;;;;;;5029674;28;20442;-54
2021/07/22 11:43:32;;;;;;;10.47;8.23;;;26.30;80.90;;;;;;5030636;28;20427;-55
2021/07/22 11:45:59;;;;;;;9.37;8.13;;;26.30;80.50;;;;;;5029542;28;20455;-54
2021/07/22 11:48:27;;;;;;;10.40;8.80;;;26.20;79.60;;;;;;5028908;28;20447;-56
2021/07/22 11:51:05;;;;;;;10.83;8.40;;;26.10;80.00;;;;;;5031569;28;20454;-55
2021/07/22 11:53:32;;;;;;;10.03;8.00;;;26.00;79.80;;;;;;5032627;28;20927;-55
2021/07/22 11:56:00;;;;;;;12.27;8.73;;;25.90;80.00;;;;;;5032717;28;20455;-55
2021/07/22 11:58:27;;;;;;;9.87;8.40;;;25.90;80.10;;;;;;5032369;28;20518;-55
2021/07/22 12:00:55;;;;;;;11.60;8.87;;;25.90;80.40;;;;;;5032230;28;20436;-55
2021/07/22 12:03:27;;;;;;;9.30;8.33;;;25.80;80.70;;;;;;5032105;28;20574;-55
2021/07/22 12:05:54;;;;;;;16.47;10.67;;;25.90;81.50;;;;;;5032431;28;20476;-55
2021/07/22 12:08:21;;;;;;;10.97;8.10;;;25.90;81.70;;;;;;5032678;28;20788;-55
2021/07/22 12:10:49;;;;;;;10.93;9.53;;;25.90;81.60;;;;;;5032752;28;20501;-55
2021/07/22 12:13:17;;;;;;;11.30;10.20;;;25.90;82.40;;;;;;5032477;28;20505;-55
2021/07/22 12:15:45;;;;;;;11.30;9.40;;;26.00;81.60;;;;;;5032334;28;20561;-55
2021/07/22 12:18:13;;;;;;;11.63;9.67;;;26.10;81.40;;;;;;5031802;28;20477;-56
2021/07/22 12:20:42;;;;;;;11.30;9.43;;;26.10;81.30;;;;;;5031794;28;20432;-55
2021/07/22 12:23:29;;;;;;;16.63;10.20;;;26.00;81.00;;;;;;5032110;28;20497;-55
2021/07/22 12:25:57;;;;;;;12.50;9.57;;;26.00;80.50;;;;;;5032008;28;20467;-56
2021/07/22 12:28:24;;;;;;;14.40;9.30;;;25.80;80.80;;;;;;5031750;28;20951;-55
2021/07/22 12:30:51;;;;;;;13.07;9.53;;;25.90;81.10;;;;;;5032083;28;20524;-55
2021/07/22 12:33:24;;;;;;;15.57;9.90;;;25.80;81.40;;;;;;5031619;28;20888;-55
2021/07/22 12:35:53;;;;;;;12.27;9.20;;;25.80;81.40;;;;;;5032130;28;20512;-55
2021/07/22 12:38:26;;;;;;;12.13;9.87;;;25.70;81.50;;;;;;5013643;28;20489;-55
2021/07/22 12:41:07;;;;;;;11.00;9.90;;;25.70;81.80;;;;;;5031582;28;20549;-55
2021/07/22 12:43:48;;;;;;;10.50;9.40;;;25.60;82.60;;;;;;5031581;28;20494;-55
2021/07/22 12:46:17;;;;;;;13.03;10.07;;;25.60;83.10;;;;;;5031455;28;20505;-55
2021/07/22 12:48:43;;;;;;;9.47;8.50;;;25.30;82.70;;;;;;5031288;28;20431;-55
2021/07/22 12:51:13;;;;;;;10.83;9.23;;;25.10;82.90;;;;;;5031613;28;20454;-55
2021/07/22 12:53:41;;;;;;;10.93;9.70;;;25.00;84.00;;;;;;5031519;28;20455;-55
2021/07/22 12:56:07;;;;;;;11.70;9.80;;;24.80;84.60;;;;;;5031299;28;20473;-54